createdAt,value
2023-03-20T00:00:26.098Z,10.60
2023-03-20T00:02:56.201Z,10.60
2023-03-20T00:05:31.398Z,10.50
2023-03-20T00:08:01.986Z,10.40
2023-03-20T00:10:38.616Z,10.50
2023-03-20T00:13:10.936Z,10.50
2023-03-20T00:15:42.938Z,10.50
2023-03-20T00:18:20.619Z,10.50
2023-03-20T00:20:54.481Z,10.50
2023-03-20T00:23:24.387Z,10.50
2023-03-20T00:25:55.519Z,10.50
2023-03-20T00:28:41.751Z,10.40
2023-03-20T00:31:25.489Z,10.40
2023-03-20T00:33:57.255Z,10.30
2023-03-20T00:36:31.251Z,10.30
2023-03-20T00:39:01.945Z,10.30
2023-03-20T00:41:36.558Z,10.30
2023-03-20T00:44:09.292Z,10.20
2023-03-20T00:46:42.168Z,10.10
2023-03-20T00:49:14.259Z,10.20
2023-03-20T00:51:46.997Z,10.20
2023-03-20T00:54:19.511Z,10.20
2023-03-20T00:56:56.821Z,10.20
2023-03-20T00:59:31.893Z,10.20
2023-03-20T01:02:02.746Z,10.10
2023-03-20T01:04:39.448Z,10.00
2023-03-20T01:07:18.573Z,10.00
2023-03-20T01:09:48.598Z,10.00
2023-03-20T01:12:19.020Z,10.10
2023-03-20T01:14:54.217Z,10.00
2023-03-20T01:17:26.821Z,10.10
2023-03-20T01:19:57.207Z,9.90
2023-03-20T01:22:29.691Z,9.90
2023-03-20T01:24:59.590Z,9.90
2023-03-20T01:27:29.579Z,9.80
2023-03-20T01:29:59.527Z,9.80
2023-03-20T01:32:29.419Z,9.80
2023-03-20T01:34:59.340Z,9.80
2023-03-20T01:37:33.375Z,9.70
2023-03-20T01:40:03.368Z,9.70
2023-03-20T01:42:33.486Z,9.50
2023-03-20T01:45:03.562Z,9.50
2023-03-20T01:47:33.721Z,9.50
2023-03-20T01:50:30.754Z,9.50
2023-03-20T01:53:19.371Z,9.50
2023-03-20T01:55:51.809Z,9.40
2023-03-20T01:58:28.551Z,9.40
2023-03-20T02:00:58.563Z,9.20
2023-03-20T02:03:28.629Z,9.20
2023-03-20T02:06:00.399Z,9.10
2023-03-20T02:08:35.600Z,9.10
2023-03-20T02:11:09.246Z,9.00
2023-03-20T02:13:39.463Z,9.10
2023-03-20T02:16:14.153Z,9.00
2023-03-20T02:18:47.477Z,9.10
2023-03-20T02:22:17.427Z,9.10
2023-03-20T02:25:40.782Z,9.10
2023-03-20T02:29:01.278Z,8.80
2023-03-20T02:32:05.354Z,8.80
2023-03-20T02:35:30.895Z,8.90
2023-03-20T02:38:17.772Z,8.80
2023-03-20T02:40:55.937Z,8.90
2023-03-20T02:43:37.525Z,8.90
2023-03-20T02:46:16.616Z,8.90
2023-03-20T02:48:55.972Z,8.90
2023-03-20T02:51:38.265Z,8.90
2023-03-20T02:54:17.882Z,8.90
2023-03-20T02:57:01.812Z,8.90
2023-03-20T02:59:39.366Z,8.80
2023-03-20T03:02:12.813Z,8.90
2023-03-20T03:04:47.138Z,8.90
2023-03-20T03:07:19.145Z,8.90
2023-03-20T03:09:57.244Z,9.00
2023-03-20T03:12:30.682Z,9.00
2023-03-20T03:15:05.618Z,9.00
2023-03-20T03:17:38.313Z,9.00
2023-03-20T03:20:17.367Z,9.00
2023-03-20T03:22:47.320Z,9.00
2023-03-20T03:25:20.444Z,9.10
2023-03-20T03:27:55.282Z,9.10
2023-03-20T03:30:31.368Z,9.10
2023-03-20T03:33:17.969Z,9.10
2023-03-20T03:35:49.900Z,9.10
2023-03-20T03:38:32.001Z,9.10
2023-03-20T03:41:20.931Z,9.10
2023-03-20T03:44:00.919Z,9.10
2023-03-20T03:46:44.674Z,9.10
2023-03-20T03:49:21.001Z,9.10
2023-03-20T03:51:56.140Z,9.20
2023-03-20T03:54:30.101Z,9.20
2023-03-20T03:57:04.176Z,9.20
2023-03-20T03:59:39.894Z,9.20
2023-03-20T04:02:11.959Z,9.20
2023-03-20T04:04:47.125Z,9.20
2023-03-20T04:07:17.196Z,9.20
2023-03-20T04:09:47.429Z,9.20
2023-03-20T04:12:42.117Z,9.10
2023-03-20T04:15:13.543Z,9.10
2023-03-20T04:17:43.716Z,9.20
2023-03-20T04:20:16.200Z,9.20
2023-03-20T04:22:46.663Z,9.10
2023-03-20T04:25:22.072Z,9.20
2023-03-20T04:27:55.657Z,9.20
2023-03-20T04:30:25.627Z,9.20
2023-03-20T04:32:55.664Z,9.20
2023-03-20T04:35:25.919Z,9.20
2023-03-20T04:37:55.918Z,9.10
2023-03-20T04:40:26.935Z,9.10
2023-03-20T04:42:59.362Z,9.10
2023-03-20T04:45:29.439Z,9.10
2023-03-20T04:47:59.794Z,9.00
2023-03-20T04:50:29.863Z,9.00
2023-03-20T04:53:00.011Z,9.00
2023-03-20T04:55:30.022Z,9.00
2023-03-20T04:58:02.820Z,9.00
2023-03-20T05:00:32.904Z,9.00
2023-03-20T05:03:03.004Z,9.00
2023-03-20T05:05:34.553Z,9.10
2023-03-20T05:08:04.773Z,9.10
2023-03-20T05:10:34.921Z,9.00
2023-03-20T05:13:07.642Z,9.10
2023-03-20T05:15:37.929Z,9.10
2023-03-20T05:18:08.294Z,9.10
2023-03-20T05:20:38.395Z,9.10
2023-03-20T05:23:08.516Z,9.10
2023-03-20T05:25:38.767Z,9.10
2023-03-20T05:28:11.672Z,9.10
2023-03-20T05:30:41.824Z,9.10
2023-03-20T05:33:12.130Z,9.00
2023-03-20T05:35:42.246Z,9.10
2023-03-20T05:38:12.518Z,9.10
2023-03-20T05:40:42.598Z,9.10
2023-03-20T05:43:15.755Z,9.10
2023-03-20T05:45:46.228Z,9.10
2023-03-20T05:48:16.470Z,9.10
2023-03-20T05:50:46.591Z,9.10
2023-03-20T05:53:16.766Z,9.10
2023-03-20T05:55:47.339Z,9.20
2023-03-20T05:58:20.025Z,9.10
2023-03-20T06:00:50.259Z,9.20
2023-03-20T06:03:21.399Z,9.20
2023-03-20T06:05:51.634Z,9.20
2023-03-20T06:08:21.825Z,9.20
2023-03-20T06:10:54.434Z,9.20
2023-03-20T06:13:27.210Z,9.20
2023-03-20T06:15:57.544Z,9.20
2023-03-20T06:18:27.771Z,9.20
2023-03-20T06:21:00.956Z,9.20
2023-03-20T06:23:31.170Z,9.20
2023-03-20T06:26:01.424Z,9.20
2023-03-20T06:28:34.421Z,9.20
2023-03-20T06:31:04.636Z,9.20
2023-03-20T06:33:34.871Z,9.20
2023-03-20T06:36:05.620Z,9.30
2023-03-20T06:38:35.726Z,9.30
2023-03-20T06:41:07.087Z,9.30
2023-03-20T06:43:40.029Z,9.30
2023-03-20T06:46:11.171Z,9.30
2023-03-20T06:48:41.490Z,9.30
2023-03-20T06:51:11.628Z,9.30
2023-03-20T06:53:44.101Z,9.30
2023-03-20T06:56:14.742Z,9.40
2023-03-20T06:58:47.459Z,9.40
2023-03-20T07:01:20.527Z,9.50
2023-03-20T07:03:51.139Z,9.50
2023-03-20T07:06:21.655Z,9.60
2023-03-20T07:08:53.143Z,9.70
2023-03-20T07:11:23.753Z,9.70
2023-03-20T07:13:56.494Z,9.70
2023-03-20T07:16:26.611Z,9.70
2023-03-20T07:18:56.831Z,9.60
2023-03-20T07:21:27.065Z,9.60
2023-03-20T07:23:57.209Z,9.60
2023-03-20T07:26:27.422Z,9.60
2023-03-20T07:28:59.980Z,9.60
2023-03-20T07:31:32.518Z,9.50
2023-03-20T07:34:02.717Z,9.50
2023-03-20T07:36:32.863Z,9.50
2023-03-20T07:39:02.814Z,9.50
2023-03-20T07:41:32.922Z,9.40
2023-03-20T07:44:08.056Z,9.40
2023-03-20T07:46:38.263Z,9.50
2023-03-20T07:49:08.247Z,9.40
2023-03-20T07:51:38.438Z,9.30
2023-03-20T07:54:08.947Z,9.30
2023-03-20T07:56:39.061Z,9.30
2023-03-20T07:59:12.203Z,9.30
2023-03-20T08:01:43.209Z,9.30
2023-03-20T08:04:13.372Z,9.30
2023-03-20T08:06:43.714Z,9.20
2023-03-20T08:09:13.826Z,9.20
2023-03-20T08:11:43.945Z,9.10
2023-03-20T08:14:16.703Z,9.10
2023-03-20T08:16:46.695Z,9.00
2023-03-20T08:19:16.871Z,9.10
2023-03-20T08:21:46.988Z,9.10
2023-03-20T08:24:17.203Z,9.10
2023-03-20T08:26:47.142Z,9.00
2023-03-20T08:29:20.825Z,9.00
2023-03-20T08:31:50.867Z,9.00
2023-03-20T08:34:23.611Z,8.90
2023-03-20T08:36:54.687Z,8.90
2023-03-20T08:39:24.700Z,8.90
2023-03-20T08:41:54.610Z,8.90
2023-03-20T08:44:27.162Z,8.90
2023-03-20T08:46:57.278Z,8.90
2023-03-20T08:49:27.965Z,9.10
2023-03-20T08:51:58.193Z,9.10
2023-03-20T08:54:28.318Z,9.10
2023-03-20T08:56:58.372Z,9.20
2023-03-20T08:59:31.418Z,9.20
2023-03-20T09:02:01.467Z,9.30
2023-03-20T09:04:31.683Z,9.40
2023-03-20T09:07:03.171Z,9.30
2023-03-20T09:09:33.480Z,9.30
2023-03-20T09:12:03.784Z,9.40
2023-03-20T09:14:36.558Z,9.50
2023-03-20T09:17:06.757Z,9.50
2023-03-20T09:19:39.583Z,9.70
2023-03-20T09:22:09.751Z,9.90
2023-03-20T09:24:39.813Z,10.20
2023-03-20T09:27:10.287Z,10.40
2023-03-20T09:29:43.166Z,10.40
2023-03-20T09:32:15.437Z,10.30
2023-03-20T09:34:46.032Z,10.40
2023-03-20T09:37:16.402Z,10.40
2023-03-20T09:39:46.494Z,10.40
2023-03-20T09:42:36.500Z,10.50
2023-03-20T09:45:17.336Z,10.60
2023-03-20T09:47:57.286Z,10.70
2023-03-20T09:50:37.455Z,10.70
2023-03-20T09:53:14.689Z,10.60
2023-03-20T09:55:45.779Z,10.60
2023-03-20T09:58:21.636Z,10.60
2023-03-20T10:00:54.430Z,10.70
2023-03-20T10:03:31.206Z,10.80
2023-03-20T10:06:04.500Z,10.80
2023-03-20T10:08:39.012Z,11.00
2023-03-20T10:11:45.525Z,11.10
2023-03-20T10:14:27.728Z,11.10
2023-03-20T10:17:27.914Z,11.10
2023-03-20T10:20:02.355Z,11.00
2023-03-20T10:22:38.306Z,11.00
2023-03-20T10:25:20.315Z,11.00
2023-03-20T10:27:56.566Z,11.10
2023-03-20T10:30:45.155Z,11.20
2023-03-20T10:33:28.720Z,11.20
2023-03-20T10:36:18.695Z,11.20
2023-03-20T10:38:55.470Z,11.10
2023-03-20T10:41:32.397Z,11.00
2023-03-20T10:44:04.200Z,11.00
2023-03-20T10:46:38.280Z,11.00
2023-03-20T10:49:17.762Z,11.00
2023-03-20T10:51:52.383Z,11.00
2023-03-20T10:54:25.881Z,11.10
2023-03-20T10:56:59.095Z,11.00
2023-03-20T10:59:31.722Z,11.00
2023-03-20T11:02:01.621Z,11.00
2023-03-20T11:04:34.260Z,11.00
2023-03-20T11:07:12.089Z,10.90
2023-03-20T11:09:42.356Z,10.90
2023-03-20T11:12:20.785Z,11.00
2023-03-20T11:14:50.817Z,11.00
2023-03-20T11:17:21.058Z,11.00
2023-03-20T11:19:54.759Z,11.00
2023-03-20T11:22:29.128Z,11.00
2023-03-20T11:25:01.716Z,11.10
2023-03-20T11:27:34.063Z,11.10
2023-03-20T11:30:08.515Z,11.10
2023-03-20T11:32:43.280Z,11.10
2023-03-20T11:35:25.492Z,11.00
2023-03-20T11:37:58.690Z,11.00
2023-03-20T11:40:34.286Z,11.10
2023-03-20T11:43:12.722Z,11.20
2023-03-20T11:45:45.688Z,11.20
2023-03-20T11:48:22.682Z,11.20
2023-03-20T11:51:03.764Z,11.30
2023-03-20T11:53:37.927Z,11.30
2023-03-20T11:56:14.513Z,11.40
2023-03-20T11:58:58.723Z,11.40
2023-03-20T12:01:30.572Z,11.40
2023-03-20T12:04:07.646Z,11.40
2023-03-20T12:06:52.686Z,11.50
2023-03-20T12:09:35.251Z,11.40
2023-03-20T12:12:12.115Z,11.40
2023-03-20T12:14:49.257Z,11.40
2023-03-20T12:17:37.209Z,11.50
2023-03-20T12:20:19.802Z,11.50
2023-03-20T12:23:02.814Z,11.50
2023-03-20T12:25:40.226Z,11.50
2023-03-20T12:28:20.138Z,11.50
2023-03-20T12:31:04.829Z,11.40
2023-03-20T12:33:47.527Z,11.30
2023-03-20T12:36:21.130Z,11.40
2023-03-20T12:38:54.556Z,11.40
2023-03-20T12:41:30.995Z,11.40
2023-03-20T12:44:19.688Z,11.40
2023-03-20T12:46:59.891Z,11.50
2023-03-20T12:49:43.120Z,11.50
2023-03-20T12:52:22.541Z,11.50
2023-03-20T12:55:25.836Z,11.50
2023-03-20T12:58:10.037Z,11.40
2023-03-20T13:00:49.778Z,11.50
2023-03-20T13:03:49.092Z,11.50
2023-03-20T13:06:25.075Z,11.50
2023-03-20T13:09:23.195Z,11.50
2023-03-20T13:12:04.163Z,11.50
2023-03-20T13:14:43.343Z,11.50
2023-03-20T13:17:21.868Z,11.50
2023-03-20T13:20:09.741Z,11.40
2023-03-20T13:22:55.556Z,11.50
2023-03-20T13:25:46.676Z,11.50
2023-03-20T13:28:31.311Z,11.50
2023-03-20T13:31:14.055Z,11.50
2023-03-20T13:33:53.794Z,11.50
2023-03-20T13:36:42.119Z,11.40
2023-03-20T13:39:19.203Z,11.50
2023-03-20T13:41:52.154Z,11.50
2023-03-20T13:44:29.332Z,11.50
2023-03-20T13:47:03.987Z,11.50
2023-03-20T13:49:39.063Z,11.50
2023-03-20T13:52:14.339Z,11.50
2023-03-20T13:54:59.868Z,11.50
2023-03-20T13:57:49.171Z,11.50
2023-03-20T14:00:30.674Z,11.50
2023-03-20T14:03:23.929Z,11.50
2023-03-20T14:05:54.304Z,11.50
2023-03-20T14:08:36.974Z,11.40
2023-03-20T14:11:18.877Z,11.40
2023-03-20T14:13:52.151Z,11.40
2023-03-20T14:16:25.513Z,11.40
2023-03-20T14:19:13.319Z,11.40
2023-03-20T14:21:48.229Z,11.30
2023-03-20T14:24:20.539Z,11.30
2023-03-20T14:26:53.662Z,11.30
2023-03-20T14:29:36.069Z,11.30
2023-03-20T14:32:36.605Z,11.30
2023-03-20T14:35:28.536Z,11.30
2023-03-20T14:38:25.674Z,11.30
2023-03-20T14:41:05.469Z,11.20
2023-03-20T14:44:00.991Z,11.20
2023-03-20T14:46:43.319Z,11.20
2023-03-20T14:49:46.924Z,11.20
2023-03-20T14:52:36.829Z,11.10
2023-03-20T14:55:33.768Z,11.10
2023-03-20T14:58:09.586Z,11.10
2023-03-20T15:00:49.611Z,11.10
2023-03-20T15:03:20.883Z,11.10
2023-03-20T15:06:02.286Z,11.10
2023-03-20T15:08:36.634Z,11.10
2023-03-20T15:11:11.604Z,11.00
2023-03-20T15:13:44.370Z,11.00
2023-03-20T15:16:17.765Z,11.10
2023-03-20T15:18:53.254Z,11.10
2023-03-20T15:21:34.306Z,11.10
2023-03-20T15:24:04.751Z,11.10
2023-03-20T15:26:38.044Z,11.10
2023-03-20T15:29:12.963Z,11.10
2023-03-20T15:31:44.343Z,11.00
2023-03-20T15:34:22.914Z,11.00
2023-03-20T15:36:58.973Z,11.00
2023-03-20T15:39:32.259Z,11.00
2023-03-20T15:42:07.141Z,10.90
2023-03-20T15:44:41.094Z,10.90
2023-03-20T15:47:21.016Z,10.90
2023-03-20T15:49:56.470Z,10.90
2023-03-20T15:52:39.409Z,10.80
2023-03-20T15:55:15.408Z,10.80
2023-03-20T15:57:48.163Z,10.80
2023-03-20T16:00:23.618Z,10.80
2023-03-20T16:02:54.146Z,10.70
2023-03-20T16:05:28.976Z,10.80
2023-03-20T16:08:15.872Z,10.80
2023-03-20T16:10:46.832Z,10.70
2023-03-20T16:13:19.950Z,10.80
2023-03-20T16:15:50.069Z,10.80
2023-03-20T16:18:21.723Z,10.80
2023-03-20T16:20:56.851Z,10.80
2023-03-20T16:23:42.732Z,10.80
2023-03-20T16:26:19.878Z,10.80
2023-03-20T16:28:51.609Z,10.80
2023-03-20T16:31:26.196Z,10.70
2023-03-20T16:33:56.306Z,10.70
2023-03-20T16:36:33.357Z,10.70
2023-03-20T16:39:13.498Z,10.70
2023-03-20T16:41:44.996Z,10.70
2023-03-20T16:44:17.983Z,10.70
2023-03-20T16:47:01.785Z,10.70
2023-03-20T16:50:15.251Z,10.70
2023-03-20T16:52:51.242Z,10.60
2023-03-20T16:55:29.867Z,10.60
2023-03-20T16:58:03.645Z,10.60
2023-03-20T17:00:36.554Z,10.60
2023-03-20T17:03:18.203Z,10.60
2023-03-20T17:05:54.916Z,10.60
2023-03-20T17:08:36.292Z,10.60
2023-03-20T17:11:15.963Z,10.50
2023-03-20T17:13:46.490Z,10.50
2023-03-20T17:16:22.069Z,10.50
2023-03-20T17:19:02.976Z,10.50
2023-03-20T17:21:33.213Z,10.50
2023-03-20T17:24:03.784Z,10.50
2023-03-20T17:26:36.678Z,10.40
2023-03-20T17:29:06.932Z,10.50
2023-03-20T17:31:37.117Z,10.40
2023-03-20T17:34:07.367Z,10.40
2023-03-20T17:36:38.882Z,10.40
2023-03-20T17:39:09.451Z,10.40
2023-03-20T17:41:42.300Z,10.30
2023-03-20T17:44:12.632Z,10.30
2023-03-20T17:46:56.847Z,10.30
2023-03-20T17:49:29.295Z,10.30
2023-03-20T17:51:59.432Z,10.30
2023-03-20T17:54:29.407Z,10.30
2023-03-20T17:57:02.047Z,10.30
2023-03-20T17:59:32.433Z,10.20
2023-03-20T18:02:03.056Z,10.20
2023-03-20T18:04:34.184Z,10.20
2023-03-20T18:07:04.784Z,10.20
2023-03-20T18:09:34.975Z,10.20
2023-03-20T18:12:08.312Z,10.20
2023-03-20T18:14:38.351Z,10.10
2023-03-20T18:17:09.015Z,10.20
2023-03-20T18:19:39.076Z,10.20
2023-03-20T18:22:09.207Z,10.10
2023-03-20T18:24:39.975Z,10.10
2023-03-20T18:27:14.191Z,10.10
2023-03-20T18:29:44.361Z,10.10
2023-03-20T18:32:14.407Z,10.10
2023-03-20T18:34:44.533Z,10.10
2023-03-20T18:37:17.040Z,10.10
2023-03-20T18:39:47.220Z,10.10
2023-03-20T18:42:19.821Z,10.10
2023-03-20T18:44:50.006Z,10.00
2023-03-20T18:47:20.167Z,10.00
2023-03-20T18:49:50.307Z,10.00
2023-03-20T18:52:21.415Z,10.00
2023-03-20T18:54:52.119Z,9.90
2023-03-20T18:57:24.751Z,10.00
2023-03-20T18:59:54.785Z,10.00
2023-03-20T19:02:25.078Z,10.00
2023-03-20T19:04:55.363Z,9.90
2023-03-20T19:07:25.764Z,10.00
2023-03-20T19:09:55.766Z,10.00
2023-03-20T19:12:28.341Z,9.90
2023-03-20T19:14:58.355Z,10.00
2023-03-20T19:17:28.705Z,9.90
2023-03-20T19:19:58.715Z,9.90
2023-03-20T19:22:29.922Z,9.90
2023-03-20T19:25:00.055Z,9.90
2023-03-20T19:27:32.944Z,9.90
2023-03-20T19:30:05.933Z,9.90
2023-03-20T19:32:36.978Z,9.90
2023-03-20T19:35:44.226Z,9.90
2023-03-20T19:37:58.610Z,9.90
2023-03-20T19:40:34.706Z,9.80
2023-03-20T19:43:08.427Z,9.80
2023-03-20T19:45:41.419Z,9.80
2023-03-20T19:48:18.349Z,9.80
2023-03-20T19:50:51.194Z,9.70
2023-03-20T19:53:27.827Z,9.70
2023-03-20T19:55:58.315Z,9.70
2023-03-20T19:58:31.087Z,9.70
2023-03-20T20:01:01.009Z,9.60
2023-03-20T20:03:31.749Z,9.60
2023-03-20T20:06:03.808Z,9.60
2023-03-20T20:08:46.898Z,9.60
2023-03-20T20:11:18.810Z,9.60
2023-03-20T20:14:05.685Z,9.60
2023-03-20T20:16:37.329Z,9.60
2023-03-20T20:19:07.863Z,9.60
2023-03-20T20:24:28.209Z,9.60
2023-03-20T20:27:15.817Z,9.60
2023-03-20T20:29:50.747Z,9.60
2023-03-20T20:32:23.608Z,9.60
2023-03-20T20:38:54.079Z,9.60
2023-03-20T20:40:35.697Z,9.60
2023-03-20T20:43:10.268Z,9.50
2023-03-20T20:45:43.387Z,9.60
2023-03-20T20:48:13.466Z,9.50
2023-03-20T20:50:46.729Z,9.50
2023-03-20T20:53:16.850Z,9.60
2023-03-20T20:55:48.162Z,9.50
2023-03-20T20:58:18.191Z,9.50
2023-03-20T21:00:55.486Z,9.50
2023-03-20T21:03:25.640Z,9.50
2023-03-20T21:05:55.665Z,9.50
2023-03-20T21:08:25.686Z,9.50
2023-03-20T21:10:55.698Z,9.50
2023-03-20T21:13:25.708Z,9.50
2023-03-20T21:16:04.142Z,9.50
2023-03-20T21:18:34.207Z,9.40
2023-03-20T21:21:08.814Z,9.40
2023-03-20T21:23:38.734Z,9.40
2023-03-20T21:26:09.835Z,9.40
2023-03-20T21:28:40.340Z,9.40
2023-03-20T21:31:24.860Z,9.40
2023-03-20T21:33:57.268Z,9.30
2023-03-20T21:36:27.897Z,9.30
2023-03-20T21:39:07.911Z,9.30
2023-03-20T21:41:40.499Z,9.30
2023-03-20T21:44:17.176Z,9.30
2023-03-20T21:50:34.423Z,9.20
2023-03-20T21:53:12.028Z,9.10
2023-03-20T21:56:13.285Z,9.10
2023-03-20T21:58:51.125Z,9.10
2023-03-20T22:07:26.741Z,9.00
2023-03-20T22:10:18.625Z,9.00
2023-03-20T22:13:15.269Z,9.00
2023-03-20T22:15:46.754Z,9.00
2023-03-20T22:24:39.442Z,9.00
2023-03-20T22:27:40.106Z,9.00
2023-03-20T22:38:59.149Z,8.90
2023-03-20T22:41:54.908Z,8.90
2023-03-20T22:46:45.651Z,8.90
2023-03-20T22:49:17.079Z,8.90
2023-03-20T22:52:04.746Z,8.90
2023-03-20T22:54:40.626Z,8.90
2023-03-20T22:57:10.595Z,8.90
2023-03-20T22:59:40.745Z,8.90
2023-03-20T23:02:10.668Z,8.90
2023-03-20T23:04:40.703Z,8.80
2023-03-20T23:07:10.841Z,8.80
2023-03-20T23:09:43.403Z,8.90
2023-03-20T23:12:13.309Z,8.90
2023-03-20T23:14:46.185Z,8.80
2023-03-20T23:17:16.542Z,8.80
2023-03-20T23:19:50.463Z,8.80
2023-03-20T23:22:24.005Z,8.90
2023-03-20T23:24:59.946Z,8.80
2023-03-20T23:27:32.947Z,8.80
2023-03-20T23:30:02.976Z,8.80
2023-03-20T23:32:32.996Z,8.80
2023-03-20T23:35:03.077Z,8.70
2023-03-20T23:37:33.062Z,8.70
2023-03-20T23:40:06.512Z,8.70
2023-03-20T23:42:36.453Z,8.70
2023-03-20T23:45:19.159Z,8.80
2023-03-20T23:47:51.014Z,8.80
2023-03-20T23:50:30.340Z,8.70
2023-03-20T23:53:17.540Z,8.70
2023-03-20T23:55:55.190Z,8.80
2023-03-20T23:58:26.633Z,8.80
